Flight Track Log - Related Links

Times and Time Zones

All times are in EDT time to prevent confusion due to time zone crossing. See the AAL9703 flight status page for this flight to view local times or setup timezone preferences in your user account.

Time Position Orientation Groundspeed Altitude Reporting Facility
EDT Latitude Longitude Course Direction KTS MPH feet Rate Location/Type
Wed 15:13:27 47.8850 -122.2850 178° South 211 243 2,400  Level FlightAware ADS-B
Wed 15:13:37 47.8740 -122.2840 177° South 216 249 2,900 1,714 Climbing FlightAware ADS-B
Wed 15:14:02 47.8459 -122.2780 172° South 232 267 3,400 1,548 Climbing FlightAware ADS-B
Wed 15:14:08 47.8398 -122.2730 151° Southeast 238 274 3,700 2,000 Climbing FlightAware ADS-B
Wed 15:14:17 47.8320 -122.2650 145° Southeast 252 290 3,900 1,600 Climbing FlightAware ADS-B
Wed 15:14:23 47.8266 -122.2580 139° Southeast 252 290 4,100 706 Climbing FlightAware ADS-B
Wed 15:14:34 47.8167 -122.2440 136° Southeast 255 293 4,100  Level FlightAware ADS-B
Wed 15:14:42 47.8105 -122.2340 133° Southeast 254 292 4,100 -261 Level FlightAware ADS-B
Wed 15:14:57 47.7988 -122.2140 131° Southeast 256 295 4,000 -273 Descending FlightAware ADS-B
Wed 15:15:04 47.7928 -122.2060 138° Southeast 254 292 4,000  Level FlightAware ADS-B
Wed 15:15:12 47.7863 -122.1960 134° Southeast 253 291 4,000  Level FlightAware ADS-B
Wed 15:15:17 47.7826 -122.1890 128° Southeast 253 291 4,000  Level FlightAware ADS-B
Wed 15:15:23 47.7787 -122.1820 130° Southeast 255 293 4,000 -400 Level FlightAware ADS-B
Wed 15:15:32 47.7719 -122.1680 126° Southeast 257 296 3,900 -250 Descending FlightAware ADS-B
Wed 15:15:47 47.7622 -122.1470 124° Southeast 261 300 3,900 200 Level FlightAware ADS-B
Wed 15:16:02 47.7520 -122.1240 123° Southeast 263 303 4,000 200 Climbing FlightAware ADS-B
Wed 15:16:17 47.7416 -122.1020 125° Southeast 262 302 4,000 -207 Level FlightAware ADS-B
Wed 15:16:31 47.7322 -122.0800 122° Southeast 260 299 3,900 414 Descending FlightAware ADS-B
Wed 15:16:46 47.7225 -122.0590 124° Southeast 265 305 4,200 2,600 Climbing FlightAware ADS-B
Wed 15:17:01 47.7118 -122.0360 125° Southeast 268 308 5,200 4,345 Climbing FlightAware ADS-B
Wed 15:17:15 47.7023 -122.0150 124° Southeast 272 313 6,300 4,286 Climbing FlightAware ADS-B
Wed 15:17:29 47.6926 -121.9920 122° Southeast 274 315 7,200 3,517 Climbing FlightAware ADS-B
Wed 15:17:44 47.6819 -121.9680 124° Southeast 276 318 8,000 2,800 Climbing FlightAware ADS-B
Wed 15:17:59 47.6721 -121.9450 122° Southeast 273 314 8,600 1,778 Climbing FlightAware ADS-B
Wed 15:18:11 47.6637 -121.9260 123° Southeast 276 318 8,800 1,333 Climbing FlightAware ADS-B
Wed 15:18:26 47.6532 -121.9020 123° Southeast 282 325 9,200 3,545 Climbing FlightAware ADS-B
Wed 15:18:55 47.6326 -121.8530 122° Southeast 287 330 11,400 4,444 Climbing FlightAware ADS-B
Wed 15:19:20 47.6144 -121.8110 123° Southeast 298 343 13,200 3,643 Climbing FlightAware ADS-B
Wed 15:19:51 47.5910 -121.7560 122° Southeast 317 365 14,800 2,634 Climbing FlightAware ADS-B
Wed 15:20:01 47.5841 -121.7370 118° Southeast 325 374 15,000 706 Climbing FlightAware ADS-B
Wed 15:20:08 47.5811 -121.7220 107° East 333 383 15,000  Level FlightAware ADS-B
Wed 15:20:12 47.5803 -121.7130 98° East 336 387 15,000  Level FlightAware ADS-B
Wed 15:20:16 47.5804 -121.7030 89° East 338 389 15,000  Level FlightAware ADS-B
Wed 15:20:20 47.5811 -121.6930 84° East 339 390 15,000 -188 Level FlightAware ADS-B
Wed 15:20:48 47.5870 -121.6290 82° East 337 388 14,900  Descending FlightAware ADS-B
Wed 15:21:18 47.5920 -121.5600 84° East 337 388 15,000 1,180 Climbing FlightAware ADS-B
Wed 15:21:49 47.5968 -121.4910 84° East 344 396 16,100 3,000 Climbing FlightAware ADS-B
Wed 15:22:24 47.6026 -121.4060 84° East 361 415 18,300 3,765 Climbing FlightAware ADS-B
Wed 15:22:40 47.6050 -121.3660 85° East 366 421 19,300 3,600 Climbing FlightAware ADS-B
Wed 15:22:54 47.6032 -121.3290 94° East 367 422 20,100 3,130 Climbing FlightAware ADS-B
Wed 15:23:03 47.6005 -121.3090 101° East 368 423 20,500 3,200 Climbing FlightAware ADS-B
Wed 15:23:09 47.5972 -121.2930 107° East 368 423 20,900 3,200 Climbing FlightAware ADS-B
Wed 15:23:18 47.5918 -121.2720 111° Southeast 368 423 21,300 3,077 Climbing FlightAware ADS-B
Wed 15:23:48 47.5700 -121.2010 114° Southeast 383 441 22,900 2,200 Climbing FlightAware ADS-B
Wed 15:24:18 47.5463 -121.1270 115° Southeast 420 483 23,500 1,377 Climbing FlightAware ADS-B
Wed 15:24:49 47.5201 -121.0440 115° Southeast 443 510 24,300 1,672 Climbing FlightAware ADS-B
Wed 15:25:19 47.4923 -120.9560 115° Southeast 484 557 25,200 2,100 Climbing FlightAware ADS-B
Wed 15:25:49 47.4635 -120.8630 115° Southeast 500 575 26,400 2,600 Climbing FlightAware ADS-B
Wed 15:26:19 47.4337 -120.7690 115° Southeast 510 587 27,800 2,344 Climbing FlightAware ADS-B
Wed 15:26:53 47.3996 -120.6610 115° Southeast 529 609 28,900 2,182 Climbing FlightAware ADS-B
Wed 15:27:25 47.3659 -120.5550 115° Southeast 540 621 30,200 2,323 Climbing FlightAware ADS-B
Wed 15:27:55 47.3337 -120.4540 115° Southeast 548 631 31,300 2,719 Climbing FlightAware ADS-B
Wed 15:28:29 47.2967 -120.3390 115° Southeast 543 625 33,100 2,789 Climbing FlightAware ADS-B
Wed 15:29:06 47.2572 -120.2170 115° Southeast 546 628 34,600 2,108 Climbing FlightAware ADS-B
Wed 15:29:43 47.2164 -120.0910 115° Southeast 547 629 35,700 1,655 Climbing FlightAware ADS-B
Wed 15:30:33 47.1608 -119.9220 116° Southeast 561 646 37,000 2,071 Climbing FlightAware ADS-B
Wed 15:31:07 47.1232 -119.8070 116° Southeast 539 620 38,600 1,224 Climbing FlightAware ADS-B
Wed 15:32:11 47.0560 -119.6020 116° Southeast 525 604 39,000 222 Climbing FlightAware ADS-B
Wed 15:32:55 47.0090 -119.4610 116° Southeast 527 606 39,000  Level FlightAware ADS-B
Wed 15:33:37 46.9630 -119.3250 116° Southeast 535 616 39,000  Level FlightAware ADS-B
Wed 15:34:14 46.9230 -119.2070 116° Southeast 539 620 39,000  Level FlightAware ADS-B
Wed 15:34:57 46.8750 -119.0650 116° Southeast 541 623 39,000  Level FlightAware ADS-B
Wed 15:35:39 46.8290 -118.9290 116° Southeast 542 624 39,000  Level FlightAware ADS-B
Wed 15:36:07 46.7980 -118.8360 116° Southeast 541 623 39,000  Level FlightAware ADS-B
Wed 15:36:55 46.7440 -118.6790 117° Southeast 542 624 39,000  Level FlightAware ADS-B
Wed 15:37:33 46.7010 -118.5560 117° Southeast 546 628 39,000  Level FlightAware ADS-B
Wed 15:38:13 46.6550 -118.4230 117° Southeast 551 634 39,000  Level FlightAware ADS-B
Wed 15:38:59 46.6030 -118.2740 117° Southeast 554 638 39,000  Level FlightAware ADS-B
Wed 15:39:48 46.5520 -118.1250 116° Southeast 555 639 39,000  Level FlightAware ADS-B
Wed 15:40:34 46.5080 -117.9940 116° Southeast 555 639 39,000  Level FlightAware ADS-B
Wed 15:41:35 46.4500 -117.8200 116° Southeast 555 639 39,000  Level FlightAware ADS-B
Wed 15:42:11 46.4160 -117.7170 116° Southeast 555 639 39,000  Level FlightAware ADS-B
Wed 15:43:00 46.3690 -117.5780 116° Southeast 555 639 39,000  Level FlightAware ADS-B
Wed 15:43:37 46.3330 -117.4730 116° Southeast 555 639 39,000  Level FlightAware ADS-B
Wed 15:44:24 46.2880 -117.3400 116° Southeast 555 639 39,000  Level FlightAware ADS-B
Wed 15:45:01 46.2530 -117.2350 116° Southeast 555 639 39,000  Level FlightAware ADS-B
Wed 15:46:01 46.1950 -117.0640 116° Southeast 555 639 39,000  Level FlightAware ADS-B
Wed 15:46:35 46.1630 -116.9680 116° Southeast 555 639 39,000  Level FlightAware ADS-B
Wed 15:47:24 46.1160 -116.8290 116° Southeast 555 639 39,000  Level FlightAware ADS-B
Wed 15:48:02 46.0800 -116.7220 116° Southeast 555 639 39,000  Level FlightAware ADS-B
Wed 15:49:02 46.0220 -116.5520 116° Southeast 555 639 39,000  Level FlightAware ADS-B
Wed 15:49:43 45.7169 -116.3297 116° Southeast 551 634 39,000  Level Seattle Center
Wed 15:50:44 45.6203 -116.1431 126° Southeast 548 631 39,000  Level Seattle Center
Wed 15:51:45 45.5364 -115.9744 125° Southeast 543 625 39,000  Level Seattle Center
Wed 15:52:47 45.4344 -115.7792 127° Southeast 546 628 39,000  Level Seattle Center
Wed 15:53:48 45.3472 -115.6125 127° Southeast 548 631 39,000  Level Seattle Center
Wed 15:54:49 45.2567 -115.4428 127° Southeast 555 639 39,000  Level Seattle Center
Wed 15:55:51 45.1531 -115.2456 127° Southeast 556 640 39,000  Level Seattle Center
Wed 15:56:52 45.0650 -115.0808 127° Southeast 551 634 39,000  Level Seattle Center
Wed 15:57:53 44.9617 -114.8875 127° Southeast 549 632 39,000  Level Seattle Center
Wed 15:58:54 44.8733 -114.7250 127° Southeast 546 628 39,000  Level Seattle Center
Wed 16:00:10 44.7572 -114.5108 127° Southeast 542 624 39,000  Level Salt Lake Center
Wed 16:01:12 44.6697 -114.3492 127° Southeast 543 625 39,000  Level Salt Lake Center
Wed 16:02:14 44.5661 -114.1617 128° Southeast 542 624 39,000  Level Salt Lake Center
Wed 16:08:22 44.0018 -113.1490 128° Southeast 531 611 39,000  Level FlightAware ADS-B
Wed 16:08:56 43.9518 -113.0620 129° Southeast 527 606 39,000  Level FlightAware ADS-B
Wed 16:09:28 43.9023 -112.9750 128° Southeast 530 610 39,000  Level FlightAware ADS-B
Wed 16:10:04 43.8477 -112.8800 129° Southeast 527 606 39,000  Level FlightAware ADS-B
Wed 16:10:51 43.7772 -112.7570 128° Southeast 530 610 39,000  Level FlightAware ADS-B
Wed 16:11:31 43.7208 -112.6581 128° Southeast 526 605 39,000  Level Salt Lake Center
Wed 16:17:05 43.2136 -111.7940 128° Southeast 515 593 39,000  Level FlightAware ADS-B
Wed 16:17:37 43.1667 -111.7150 129° Southeast 513 590 39,000  Level FlightAware ADS-B
Wed 16:18:08 43.1198 -111.6370 129° Southeast 510 587 39,000  Level FlightAware ADS-B
Wed 16:21:54 42.7870 -111.0850 129° Southeast 503 579 39,000  Level FlightAware ADS-B
Wed 16:22:40 42.7270 -110.9860 130° Southeast 503 579 39,000  Level FlightAware ADS-B
Wed 16:23:15 42.6830 -110.9120 129° Southeast 503 579 39,000  Level FlightAware ADS-B
Wed 16:24:02 42.6250 -110.8140 129° Southeast 503 579 39,000  Level FlightAware ADS-B
Wed 16:24:40 42.5780 -110.7350 129° Southeast 503 579 39,000  Level FlightAware ADS-B
Wed 16:25:40 42.5030 -110.6100 129° Southeast 503 579 39,000  Level FlightAware ADS-B
Wed 16:26:16 42.4580 -110.5350 129° Southeast 503 579 39,000  Level FlightAware ADS-B
Wed 16:27:03 42.4000 -110.4370 129° Southeast 503 579 39,000  Level FlightAware ADS-B
Wed 16:27:39 42.3550 -110.3620 129° Southeast 503 579 39,000  Level FlightAware ADS-B
Wed 16:28:30 42.2910 -110.2560 129° Southeast 503 579 39,000  Level FlightAware ADS-B
Wed 16:29:06 42.2460 -110.1810 129° Southeast 503 579 39,000  Level FlightAware ADS-B
Wed 16:30:06 42.0578 -109.9178 129° Southeast 504 580 39,000  Level Salt Lake Center
Wed 16:31:08 41.9581 -109.7597 130° Southeast 499 574 39,000  Level Salt Lake Center
Wed 16:32:10 41.8714 -109.6239 131° Southeast 500 575 39,000  Level Salt Lake Center
Wed 16:33:12 41.7711 -109.4678 131° Southeast 496 571 39,000  Level Salt Lake Center
Wed 16:34:14 41.6864 -109.3350 130° Southeast 493 567 39,000  Level Salt Lake Center
Wed 16:35:16 41.6014 -109.2017 130° Southeast 491 565 39,000  Level Salt Lake Center
Wed 16:36:18 41.4994 -109.0406 130° Southeast 497 572 39,000  Level Salt Lake Center
Wed 16:37:20 41.4075 -108.9042 132° Southeast 502 578 39,000  Level Salt Lake Center
Wed 16:42:46 40.9050 -108.1510 132° Southeast 494 568 39,000  Level FlightAware ADS-B
Wed 16:43:26 40.8470 -108.0640 131° Southeast 493 567 39,000  Level FlightAware ADS-B
Wed 16:44:12 40.7770 -107.9610 132° Southeast 492 566 39,000  Level FlightAware ADS-B
Wed 16:44:52 40.7160 -107.8710 132° Southeast 492 566 39,000  Level FlightAware ADS-B
Wed 16:45:29 40.6610 -107.7900 132° Southeast 492 566 39,000  Level FlightAware ADS-B
Wed 16:46:16 40.5910 -107.6870 132° Southeast 490 564 39,000  Level FlightAware ADS-B
Wed 16:46:56 40.5280 -107.5950 132° Southeast 489 563 39,000  Level FlightAware ADS-B
Wed 16:47:42 40.4620 -107.4990 132° Southeast 490 564 39,000  Level FlightAware ADS-B
Wed 16:48:23 40.3960 -107.4040 132° Southeast 492 566 39,000  Level FlightAware ADS-B
Wed 16:49:06 40.3340 -107.3150 132° Southeast 492 566 39,000  Level FlightAware ADS-B
Wed 16:49:46 40.2720 -107.2250 132° Southeast 490 564 39,000  Level FlightAware ADS-B
Wed 16:50:38 40.1910 -107.1080 132° Southeast 489 563 39,000  Level FlightAware ADS-B
Wed 16:51:56 40.0720 -106.9370 132° Southeast 491 565 39,000  Level FlightAware ADS-B
Wed 16:52:35 40.0090 -106.8490 133° Southeast 494 568 39,000  Level FlightAware ADS-B
Wed 16:52:52 39.9830 -106.8110 132° Southeast 495 570 39,000  Level FlightAware ADS-B
Wed 16:53:23 39.9348 -106.7430 133° Southeast 495 570 39,000  Level FlightAware ADS-B
Wed 16:53:59 39.8794 -106.6640 132° Southeast 494 568 39,000  Level FlightAware ADS-B
Wed 16:54:31 39.8300 -106.5950 133° Southeast 495 570 39,000  Level FlightAware ADS-B
Wed 16:55:02 39.7811 -106.5260 133° Southeast 495 570 39,000  Level FlightAware ADS-B
Wed 16:55:33 39.7338 -106.4590 133° Southeast 495 570 39,000  Level FlightAware ADS-B
Wed 16:56:05 39.6847 -106.3900 133° Southeast 495 570 39,000  Level FlightAware ADS-B
Wed 16:56:35 39.6378 -106.3240 133° Southeast 496 571 39,000  Level FlightAware ADS-B
Wed 16:57:09 39.5840 -106.2490 133° Southeast 496 571 39,000  Level FlightAware ADS-B
Wed 16:57:40 39.5364 -106.1830 133° Southeast 496 571 39,000  Level FlightAware ADS-B
Wed 16:58:10 39.4889 -106.1170 133° Southeast 497 572 39,000  Level FlightAware ADS-B
Wed 16:58:42 39.4398 -106.0490 133° Southeast 497 572 39,000  Level FlightAware ADS-B
Wed 16:59:13 39.3910 -105.9810 133° Southeast 497 572 39,000  Level FlightAware ADS-B
Wed 16:59:43 39.3437 -105.9160 133° Southeast 496 571 39,000  Level FlightAware ADS-B
Wed 17:00:14 39.2952 -105.8490 133° Southeast 493 567 39,000  Level FlightAware ADS-B
Wed 17:00:44 39.2479 -105.7840 133° Southeast 495 570 39,000  Level FlightAware ADS-B
Wed 17:01:17 39.1961 -105.7130 133° Southeast 496 571 39,000  Level FlightAware ADS-B
Wed 17:01:48 39.1489 -105.6480 133° Southeast 497 572 39,000  Level FlightAware ADS-B
Wed 17:02:18 39.1006 -105.5820 133° Southeast 496 571 39,000  Level FlightAware ADS-B
Wed 17:02:49 39.0529 -105.5170 133° Southeast 497 572 39,000  Level FlightAware ADS-B
Wed 17:03:19 39.0056 -105.4530 134° Southeast 497 572 39,000  Level FlightAware ADS-B
Wed 17:03:49 38.9583 -105.3890 134° Southeast 498 573 39,000  Level FlightAware ADS-B
Wed 17:04:19 38.9107 -105.3240 133° Southeast 498 573 39,000  Level FlightAware ADS-B
Wed 17:04:49 38.8632 -105.2600 134° Southeast 499 574 39,000  Level FlightAware ADS-B
Wed 17:05:19 38.8152 -105.1950 133° Southeast 500 575 39,000  Level FlightAware ADS-B
Wed 17:05:50 38.7659 -105.1290 134° Southeast 499 574 39,000  Level FlightAware ADS-B
Wed 17:06:21 38.7173 -105.0630 133° Southeast 498 573 39,000  Level FlightAware ADS-B
Wed 17:06:51 38.6684 -104.9980 134° Southeast 497 572 39,000  Level FlightAware ADS-B
Wed 17:07:22 38.6198 -104.9330 134° Southeast 497 572 39,000  Level FlightAware ADS-B
Wed 17:07:52 38.5722 -104.8690 134° Southeast 499 574 39,000  Level FlightAware ADS-B
Wed 17:08:28 38.5140 -104.7920 134° Southeast 500 575 39,000  Level FlightAware ADS-B
Wed 17:08:59 38.4654 -104.7270 134° Southeast 500 575 39,000  Level FlightAware ADS-B
Wed 17:09:31 38.4139 -104.6590 134° Southeast 499 574 39,000  Level FlightAware ADS-B
Wed 17:10:05 38.3598 -104.5870 134° Southeast 499 574 39,000  Level FlightAware ADS-B
Wed 17:10:37 38.3093 -104.5200 134° Southeast 498 573 39,000  Level FlightAware ADS-B
Wed 17:11:07 38.2607 -104.4560 134° Southeast 498 573 39,000  Level FlightAware ADS-B
Wed 17:11:37 38.2123 -104.3930 134° Southeast 500 575 39,000  Level FlightAware ADS-B
Wed 17:12:08 38.1633 -104.3290 134° Southeast 499 574 39,000  Level FlightAware ADS-B
Wed 17:12:39 38.1132 -104.2630 134° Southeast 499 574 39,000  Level FlightAware ADS-B
Wed 17:13:15 38.0559 -104.1880 134° Southeast 500 575 39,000  Level FlightAware ADS-B
Wed 17:13:51 37.9964 -104.1110 134° Southeast 501 577 39,000  Level FlightAware ADS-B
Wed 17:16:20 37.7560 -103.7990 134° Southeast 503 579 39,000  Level FlightAware ADS-B
Wed 17:16:50 37.7071 -103.7360 134° Southeast 504 580 39,000  Level FlightAware ADS-B
Wed 17:17:22 37.6552 -103.6690 134° Southeast 504 580 39,000  Level FlightAware ADS-B
Wed 17:17:52 37.6054 -103.6060 135° Southeast 504 580 39,000  Level FlightAware ADS-B
Wed 17:18:28 37.5467 -103.5310 135° Southeast 506 582 39,000  Level FlightAware ADS-B
Wed 17:19:01 37.4921 -103.4610 134° Southeast 506 582 39,000  Level FlightAware ADS-B
Wed 17:19:36 37.4350 -103.3880 135° Southeast 506 582 39,000  Level FlightAware ADS-B
Wed 17:20:06 37.3854 -103.3250 135° Southeast 506 582 39,000  Level FlightAware ADS-B
Wed 17:20:37 37.3350 -103.2610 135° Southeast 505 581 39,000  Level FlightAware ADS-B
Wed 17:21:07 37.2855 -103.1980 135° Southeast 503 579 39,000  Level FlightAware ADS-B
Wed 17:21:38 37.2358 -103.1360 135° Southeast 501 577 39,000  Level FlightAware ADS-B
Wed 17:22:09 37.1852 -103.0720 135° Southeast 501 577 39,000  Level FlightAware ADS-B
Wed 17:22:39 37.1362 -103.0100 135° Southeast 501 577 39,000  Level FlightAware ADS-B
Wed 17:23:10 37.0854 -102.9470 135° Southeast 501 577 39,000  Level FlightAware ADS-B
Wed 17:23:40 37.0355 -102.8840 135° Southeast 501 577 39,000  Level FlightAware ADS-B
Wed 17:24:26 36.9667 -102.7992 135° Southeast 500 575 39,000  Level Albuquerque Center
Wed 17:25:28 36.8731 -102.6811 135° Southeast 500 575 39,000  Level Albuquerque Center
Wed 17:26:30 36.7631 -102.5447 135° Southeast 499 574 39,000  Level Albuquerque Center
Wed 17:27:31 36.6786 -102.4417 136° Southeast 500 575 39,000  Level Albuquerque Center
Wed 17:28:33 36.5611 -102.2956 135° Southeast 498 573 39,000  Level Albuquerque Center
Wed 17:29:35 36.4614 -102.1756 136° Southeast 499 574 39,000  Level Albuquerque Center
Wed 17:30:37 36.3639 -102.0556 135° Southeast 495 570 39,000  Level Albuquerque Center
Wed 17:31:39 36.2650 -101.9353 136° Southeast 497 572 39,000  Level Albuquerque Center
Wed 17:32:41 36.1656 -101.8147 136° Southeast 499 574 39,000  Level Albuquerque Center
Wed 17:33:42 36.0658 -101.6933 135° Southeast 499 574 39,000  Level Albuquerque Center
Wed 17:34:44 35.9669 -101.5711 135° Southeast 501 577 39,000  Level Albuquerque Center
Wed 17:35:46 35.8464 -101.4278 136° Southeast 500 575 39,000  Level Albuquerque Center
Wed 17:36:48 35.7558 -101.2961 130° Southeast 501 577 39,000  Level Albuquerque Center
Wed 17:37:50 35.6719 -101.1564 126° Southeast 504 580 39,000  Level Albuquerque Center
Wed 17:38:52 35.5878 -101.0183 127° Southeast 503 579 39,000  Level Albuquerque Center
Wed 17:39:54 35.5042 -100.8828 127° Southeast 499 574 39,000  Level Albuquerque Center
Wed 17:40:56 35.4206 -100.7467 127° Southeast 498 573 39,000  Level Albuquerque Center
Wed 17:41:58 35.3347 -100.6111 128° Southeast 496 571 39,000  Level Albuquerque Center
Wed 17:47:18 34.9210 -99.9460 128° Southeast 489 563 39,000  Level FlightAware ADS-B
Wed 17:47:58 34.8750 -99.8710 127° Southeast 489 563 39,000  Level FlightAware ADS-B
Wed 17:48:34 34.8330 -99.8040 127° Southeast 489 563 39,000  Level FlightAware ADS-B
Wed 17:49:22 34.7220 -99.6330 128° Southeast 467 537 39,000  Level FlightAware ADS-B
Wed 17:50:04 34.6570 -99.5340 129° Southeast 466 536 39,000  Level FlightAware ADS-B
Wed 17:51:03 34.5840 -99.4190 128° Southeast 466 536 39,000  Level FlightAware ADS-B
Wed 17:51:34 34.5410 -99.3530 128° Southeast 465 535 39,000 -65 Level FlightAware ADS-B
Wed 17:52:36 34.4560 -99.2200 128° Southeast 467 537 38,900 -200 Descending FlightAware ADS-B
Wed 17:53:34 34.3900 -99.1160 128° Southeast 473 544 38,600 -1,248 Descending FlightAware ADS-B
Wed 17:54:17 34.3190 -99.0090 129° Southeast 471 542 36,800 -2,122 Descending FlightAware ADS-B
Wed 17:54:56 34.2670 -98.9290 128° Southeast 470 541 35,700 -1,636 Descending FlightAware ADS-B
Wed 17:55:34 34.2110 -98.8610 135° Southeast 470 541 34,700 -1,671 Descending FlightAware ADS-B
Wed 17:56:15 34.1260 -98.8190 158° South 472 543 33,500 -1,674 Descending FlightAware ADS-B
Wed 17:57:00 34.0270 -98.8100 176° South 482 555 32,300 -1,097 Descending FlightAware ADS-B
Wed 17:57:48 33.9320 -98.7980 174° South 481 554 31,800 -357 Descending FlightAware ADS-B
Wed 17:58:24 33.8640 -98.7900 174° South 481 554 31,800 -2,268 Level FlightAware ADS-B
Wed 17:59:10 33.8280 -98.6080 103° East 456 525 28,700 -1,831 Descending FlightAware ADS-B
Wed 18:00:22 33.7770 -98.4640 113° Southeast 450 518 28,200 -275 Descending FlightAware ADS-B
Wed 18:00:59 33.7510 -98.3910 113° Southeast 450 518 28,200 -3,923 Level FlightAware ADS-B
Wed 18:01:40 33.7070 -98.2800 115° Southeast 414 476 23,100 -4,719 Descending FlightAware ADS-B
Wed 18:02:28 33.6750 -98.1810 111° Southeast 395 455 21,200 -2,302 Descending FlightAware ADS-B
Wed 18:03:06 33.6700 -98.1030 94° East 391 450 19,800 -1,077 Descending FlightAware ADS-B
Wed 18:03:46 33.6680 -98.0290 92° East 391 450 19,800 -1,920 Level FlightAware ADS-B
Wed 18:04:46 33.6380 -97.8900 104° East 386 444 16,600 -2,877 Descending FlightAware ADS-B
Wed 18:04:59 33.6230 -97.8710 133° Southeast 376 433 16,300 -1,950 Descending FlightAware ADS-B
Wed 18:05:26 33.5860 -97.8350 141° Southeast 369 425 15,300 -2,143 Descending FlightAware ADS-B
Wed 18:06:09 33.5290 -97.7810 142° Southeast 357 411 13,800 -1,829 Descending FlightAware ADS-B
Wed 18:06:48 33.4850 -97.7390 141° Southeast 343 395 12,800 -987 Descending FlightAware ADS-B
Wed 18:07:28 33.4390 -97.6950 141° Southeast 325 374 12,500 -1,618 Descending FlightAware ADS-B
Wed 18:08:17 33.3800 -97.6390 142° Southeast 304 350 10,400 -1,754 Descending FlightAware ADS-B
Wed 18:09:38 33.2980 -97.5470 137° Southeast 298 343 8,700 -1,302 Descending FlightAware ADS-B
Wed 18:10:03 33.2760 -97.5190 133° Southeast 292 336 8,100 -706 Descending FlightAware ADS-B
Wed 18:10:29 33.2560 -97.4920 132° Southeast 292 336 8,100 -1,800 Level FlightAware ADS-B
Wed 18:10:43 33.2400 -97.4710 132° Southeast 285 328 6,900 -2,026 Descending FlightAware ADS-B
Wed 18:11:46 33.1870 -97.4020 133° Southeast 255 293 5,500 -1,360 Descending FlightAware ADS-B
Wed 18:11:58 33.1770 -97.3890 133° Southeast 254 292 5,200 -714 Descending FlightAware ADS-B
Wed 18:12:28 33.1530 -97.3580 133° Southeast 249 287 5,000 -207 Descending FlightAware ADS-B
Wed 18:12:56 33.1320 -97.3310 133° Southeast 246 283 5,000  Level FlightAware ADS-B
Wed 18:13:24 33.1090 -97.3010 132° Southeast 254 292 5,000 -414 Level FlightAware ADS-B
Wed 18:13:54 33.0860 -97.2710 132° Southeast 247 284 4,600 -778 Descending FlightAware ADS-B
Wed 18:14:18 33.0680 -97.2480 133° Southeast 244 281 4,300 -750 Descending FlightAware ADS-B
Wed 18:14:50 33.0420 -97.2200 138° Southeast 233 268 3,900 -879 Descending FlightAware ADS-B
Wed 18:16:55 32.9670 -97.1420 139° Southeast 136 157 2,000 -750 Descending FlightAware ADS-B
Wed 18:17:22 32.9560 -97.1310 140° Southeast 136 157 2,000 -640 Level FlightAware ADS-B
Wed 18:18:10 32.9311 -97.1042 140° Southeast 151 174 1,200 -722 Descending Fort Worth Center
Wed 18:19:10 32.8975 -97.0744 143° Southeast 135 155 700 7,900 Descending Fort Worth Center
Wed 18:20:10 32.8181 -97.0203 150° Southeast 135 155 17,000 16,300 Climbing Fort Worth Center

Login

Don't have an account? Register now (free) for customized features, flight alerts, and more!